Time;durP1;ratioP1;P1;durP2;ratioP2;P2;SDS_P1;SDS_P2;PMS_P1;PMS_P2;Temp;Humidity;BMP_temperature;BMP_pressure;BME280_temperature;BME280_humidity;BME280_pressure;Samples;Min_cycle;Max_cycle;Signal;HPM_P1;HPM_P2
2022/09/05 00:01:09;;;;;;;3.08;2.78;;;17.50;99.90;;;;;;5062863;28;20180;-78
2022/09/05 00:03:43;;;;;;;3.97;3.38;;;17.50;99.90;;;;;;5064479;28;20188;-78
2022/09/05 00:06:10;;;;;;;3.90;3.60;;;17.50;99.90;;;;;;5061796;28;20181;-78
2022/09/05 00:08:53;;;;;;;3.97;3.58;;;17.80;99.90;;;;;;5066479;28;20220;-78
2022/09/05 00:11:30;;;;;;;3.42;3.13;;;17.10;99.90;;;;;;5061872;28;20220;-78
2022/09/05 00:14:04;;;;;;;3.50;3.20;;;17.50;99.90;;;;;;5069537;28;20893;-78
2022/09/05 00:17:04;;;;;;;3.78;3.47;;;17.50;99.90;;;;;;5061722;28;20216;-78
2022/09/05 00:19:45;;;;;;;5.40;3.65;;;17.70;99.90;;;;;;5060780;28;20566;-77
2022/09/05 00:22:44;;;;;;;4.63;3.40;;;17.60;99.90;;;;;;5067980;28;20287;-77
2022/09/05 00:25:42;;;;;;;3.75;3.33;;;17.40;99.90;;;;;;5064575;28;20177;-78
2022/09/05 00:28:29;;;;;;;4.60;3.08;;;17.40;99.90;;;;;;5065545;28;20180;-78
2022/09/05 00:30:58;;;;;;;4.38;3.28;;;17.40;99.90;;;;;;5061607;28;20181;-77
2022/09/05 00:33:57;;;;;;;4.90;3.25;;;17.20;99.90;;;;;;5069824;28;20216;-77
2022/09/05 00:36:40;;;;;;;3.83;3.53;;;17.30;99.90;;;;;;5063601;28;20239;-77
2022/09/05 00:39:16;;;;;;;3.22;2.92;;;17.20;99.90;;;;;;5059586;28;20197;-77
2022/09/05 00:41:43;;;;;;;3.33;3.13;;;17.50;99.90;;;;;;5069311;28;20202;-77
2022/09/05 00:44:10;;;;;;;4.30;3.22;;;17.00;99.90;;;;;;5069898;28;20637;-77
2022/09/05 00:46:46;;;;;;;7.05;3.97;;;17.60;99.90;;;;;;5059577;28;20205;-77
2022/09/05 00:49:32;;;;;;;3.72;3.42;;;17.40;99.90;;;;;;5067430;28;20200;-77
2022/09/05 00:52:13;;;;;;;3.95;3.60;;;17.20;99.90;;;;;;5069943;28;20217;-78
2022/09/05 00:55:04;;;;;;;3.63;3.03;;;17.10;99.90;;;;;;5070368;28;20211;-78
2022/09/05 00:57:45;;;;;;;3.38;3.08;;;16.60;99.90;;;;;;5068740;28;20592;-77
2022/09/05 01:00:15;;;;;;;3.70;3.40;;;16.90;99.90;;;;;;5070110;28;20196;-77
2022/09/05 01:03:08;;;;;;;4.20;3.78;;;17.00;99.90;;;;;;5069533;28;20252;-78
2022/09/05 01:06:03;;;;;;;4.13;3.80;;;17.20;99.90;;;;;;5072838;28;20176;-76
2022/09/05 01:09:01;;;;;;;3.97;3.60;;;17.40;99.90;;;;;;5042424;28;20220;-78
2022/09/05 01:11:38;;;;;;;4.03;3.45;;;16.70;99.90;;;;;;5071389;28;20185;-78
2022/09/05 01:14:19;;;;;;;3.80;3.50;;;16.90;99.90;;;;;;5069954;28;20181;-77
2022/09/05 01:16:59;;;;;;;4.10;3.70;;;16.90;99.90;;;;;;5064166;28;20200;-77
2022/09/05 01:19:43;;;;;;;3.72;3.42;;;16.80;99.90;;;;;;5067611;28;20209;-78
2022/09/05 01:22:15;;;;;;;4.78;3.55;;;16.70;99.90;;;;;;5069752;28;20204;-76
2022/09/05 01:24:47;;;;;;;3.35;3.10;;;16.90;99.90;;;;;;5069618;28;20206;-78
2022/09/05 01:27:38;;;;;;;3.17;2.97;;;16.80;99.90;;;;;;5066765;28;20192;-77
2022/09/05 01:30:17;;;;;;;4.95;3.30;;;17.10;99.90;;;;;;5063514;28;20664;-77
2022/09/05 01:32:48;;;;;;;3.67;3.30;;;16.70;99.90;;;;;;5072936;28;20188;-78
2022/09/05 01:35:48;;;;;;;3.67;3.35;;;16.50;99.90;;;;;;5072346;28;20630;-76
2022/09/05 01:38:40;;;;;;;3.72;3.33;;;16.40;99.90;;;;;;5068300;28;20173;-77
2022/09/05 01:41:31;;;;;;;6.00;3.92;;;16.60;99.90;;;;;;5067945;28;20545;-76
2022/09/05 01:44:27;;;;;;;3.95;3.55;;;16.50;99.90;;;;;;5073089;28;20326;-76
2022/09/05 01:47:17;;;;;;;4.07;3.78;;;16.40;99.90;;;;;;5068148;28;20184;-77
2022/09/05 01:49:55;;;;;;;3.80;3.50;;;16.20;99.90;;;;;;5069670;28;20207;-76
2022/09/05 01:52:48;;;;;;;5.45;3.70;;;16.10;99.90;;;;;;5068654;28;20264;-77
2022/09/05 01:55:49;;;;;;;3.95;3.65;;;16.40;99.90;;;;;;5062802;28;20197;-77
2022/09/05 01:58:30;;;;;;;4.35;3.40;;;16.40;99.90;;;;;;5071179;28;20288;-76
2022/09/05 02:01:07;;;;;;;3.60;3.30;;;16.40;99.90;;;;;;5068999;28;20603;-77
2022/09/05 02:03:51;;;;;;;4.10;3.78;;;16.00;99.90;;;;;;5072560;28;20675;-77
2022/09/05 02:06:51;;;;;;;4.15;3.50;;;16.30;99.90;;;;;;5070228;28;20212;-77
2022/09/05 02:10:03;;;;;;;6.82;3.55;;;16.30;99.90;;;;;;5059930;28;20667;-76
2022/09/05 02:12:42;;;;;;;3.85;3.45;;;16.20;99.90;;;;;;5057831;28;20290;-77
2022/09/05 02:15:15;;;;;;;4.05;3.72;;;16.40;99.90;;;;;;5067334;28;20703;-77
2022/09/05 02:17:41;;;;;;;3.72;3.40;;;16.10;99.90;;;;;;5070781;28;20550;-77
2022/09/05 02:20:33;;;;;;;5.37;3.87;;;16.00;99.90;;;;;;5067978;28;20208;-77
2022/09/05 02:23:13;;;;;;;4.00;3.60;;;16.10;99.90;;;;;;5071497;28;20242;-77
2022/09/05 02:26:13;;;;;;;3.78;3.47;;;16.00;99.90;;;;;;5064413;28;20183;-77
2022/09/05 02:28:46;;;;;;;3.45;3.10;;;16.20;99.90;;;;;;5064884;28;20261;-78
2022/09/05 02:31:32;;;;;;;3.85;3.45;;;15.90;99.90;;;;;;5070950;28;20197;-76
2022/09/05 02:34:14;;;;;;;3.92;3.55;;;16.50;99.90;;;;;;5057710;28;20275;-78
2022/09/05 02:37:10;;;;;;;5.10;3.90;;;16.20;99.90;;;;;;5067984;28;20219;-78
2022/09/05 02:39:58;;;;;;;3.80;3.45;;;16.20;99.90;;;;;;5060964;28;20563;-75
2022/09/05 02:42:41;;;;;;;7.10;4.05;;;16.40;99.90;;;;;;5071621;28;20181;-75
2022/09/05 02:45:25;;;;;;;3.75;3.45;;;16.10;99.90;;;;;;5063598;28;20180;-76
2022/09/05 02:48:07;;;;;;;3.60;3.30;;;16.20;99.90;;;;;;5066944;28;20257;-75
2022/09/05 02:50:53;;;;;;;4.00;3.70;;;15.80;99.90;;;;;;5066907;28;20180;-76
2022/09/05 02:53:21;;;;;;;4.65;3.72;;;16.20;99.90;;;;;;5067992;28;20687;-75
2022/09/05 02:56:11;;;;;;;6.80;3.80;;;16.30;99.90;;;;;;5070267;28;20212;-76
2022/09/05 02:58:55;;;;;;;3.40;3.10;;;15.90;99.90;;;;;;5065235;28;20261;-76
2022/09/05 03:01:57;;;;;;;4.05;3.72;;;16.10;99.90;;;;;;5070474;28;20196;-76
2022/09/05 03:04:41;;;;;;;3.50;3.30;;;16.30;99.90;;;;;;5070248;28;20188;-78
2022/09/05 03:07:24;;;;;;;6.90;6.22;;;16.00;99.90;;;;;;5081335;28;20582;-76
2022/09/05 03:10:07;;;;;;;4.07;3.78;;;16.00;99.90;;;;;;5067297;28;20580;-75
2022/09/05 03:13:13;;;;;;;3.90;3.60;;;15.90;99.90;;;;;;5060322;28;20255;-76
2022/09/05 03:16:15;;;;;;;4.82;3.95;;;15.60;99.90;;;;;;5069009;28;20257;-76
2022/09/05 03:18:44;;;;;;;3.83;3.40;;;16.20;99.90;;;;;;5067647;28;20304;-76
2022/09/05 03:21:36;;;;;;;3.50;3.20;;;16.00;99.90;;;;;;5062902;28;20186;-76
2022/09/05 03:24:35;;;;;;;4.50;4.20;;;16.00;99.90;;;;;;5063937;28;20195;-76
2022/09/05 03:27:19;;;;;;;3.78;3.42;;;16.00;99.90;;;;;;5069128;28;20192;-77
2022/09/05 03:30:04;;;;;;;3.97;3.67;;;16.10;99.90;;;;;;5062187;28;20575;-77
2022/09/05 03:32:56;;;;;;;4.75;4.35;;;15.80;99.90;;;;;;5068018;28;20657;-77
2022/09/05 03:35:40;;;;;;;4.95;3.75;;;16.10;99.90;;;;;;5069632;28;20736;-77
2022/09/05 03:38:21;;;;;;;4.18;3.88;;;16.00;99.90;;;;;;5065240;28;20188;-77
2022/09/05 03:41:19;;;;;;;3.65;3.35;;;16.10;99.90;;;;;;5065643;28;20177;-77
2022/09/05 03:44:00;;;;;;;3.75;3.45;;;16.10;99.90;;;;;;5051575;28;20556;-75
2022/09/05 03:46:43;;;;;;;5.25;3.97;;;16.00;99.90;;;;;;5066362;28;20186;-77
2022/09/05 03:49:08;;;;;;;4.75;4.28;;;16.00;99.90;;;;;;5066461;28;20246;-77
2022/09/05 03:51:38;;;;;;;4.40;4.00;;;16.10;99.90;;;;;;5070559;28;20208;-77
2022/09/05 03:54:28;;;;;;;3.53;3.25;;;16.10;99.90;;;;;;5061292;28;20525;-77
2022/09/05 03:57:21;;;;;;;3.97;3.40;;;16.10;99.90;;;;;;5069181;28;20580;-77
2022/09/05 03:59:47;;;;;;;3.97;3.67;;;16.10;99.90;;;;;;5061466;28;20208;-77
2022/09/05 04:02:18;;;;;;;6.67;4.23;;;16.40;99.90;;;;;;5067933;28;20211;-78
2022/09/05 04:04:58;;;;;;;4.10;3.80;;;16.20;99.90;;;;;;5067442;28;20548;-77
2022/09/05 04:07:36;;;;;;;4.53;3.70;;;15.70;99.90;;;;;;5068035;28;20185;-76
2022/09/05 04:10:20;;;;;;;4.70;4.15;;;16.00;99.90;;;;;;5061410;28;20216;-75
2022/09/05 04:12:54;;;;;;;4.57;3.75;;;15.80;99.90;;;;;;5069279;28;20207;-76
2022/09/05 04:15:54;;;;;;;3.90;3.60;;;16.20;99.90;;;;;;5069351;28;20196;-77
2022/09/05 04:18:27;;;;;;;5.40;4.55;;;15.80;99.90;;;;;;5062970;28;20231;-77
2022/09/05 04:21:09;;;;;;;4.40;4.00;;;15.40;99.90;;;;;;5067823;28;20181;-77
2022/09/05 04:23:57;;;;;;;4.68;4.28;;;15.70;99.90;;;;;;5067017;28;20266;-77
2022/09/05 04:26:56;;;;;;;4.70;4.30;;;15.90;99.90;;;;;;5063972;28;20559;-78
2022/09/05 04:29:43;;;;;;;5.35;4.85;;;16.10;99.90;;;;;;5061517;28;20220;-77
2022/09/05 04:32:26;;;;;;;5.00;4.05;;;15.90;99.90;;;;;;5066788;28;20189;-78
2022/09/05 04:35:17;;;;;;;4.43;4.03;;;15.80;99.90;;;;;;5069407;28;20215;-76
2022/09/05 04:38:12;;;;;;;5.10;4.10;;;16.00;99.90;;;;;;5067925;28;20180;-76
2022/09/05 04:40:42;;;;;;;4.53;4.20;;;15.90;99.90;;;;;;5066548;28;20181;-77
2022/09/05 04:43:26;;;;;;;3.95;3.63;;;15.80;99.90;;;;;;5066486;28;20188;-77
2022/09/05 04:46:03;;;;;;;5.07;4.53;;;15.90;99.90;;;;;;5057306;28;20704;-77
2022/09/05 04:48:57;;;;;;;5.53;4.43;;;16.20;99.90;;;;;;5061967;28;20212;-76
2022/09/05 04:51:51;;;;;;;4.93;4.53;;;15.40;99.90;;;;;;5059786;28;20315;-78
2022/09/05 04:54:31;;;;;;;4.95;3.80;;;15.80;99.90;;;;;;5066307;28;20267;-77
2022/09/05 04:57:06;;;;;;;4.38;3.83;;;16.00;99.90;;;;;;5068540;28;20275;-77
2022/09/05 04:59:46;;;;;;;4.95;3.90;;;15.70;99.90;;;;;;5058908;28;20235;-77
2022/09/05 05:02:24;;;;;;;5.60;5.05;;;15.40;99.90;;;;;;5062115;28;20185;-78
2022/09/05 05:04:59;;;;;;;3.90;3.60;;;16.40;99.90;;;;;;5067021;28;20565;-77
2022/09/05 05:07:48;;;;;;;3.78;3.40;;;16.30;99.90;;;;;;5067137;28;20241;-78
2022/09/05 05:10:43;;;;;;;5.80;5.30;;;15.90;99.90;;;;;;5064717;28;20642;-77
2022/09/05 05:13:15;;;;;;;6.07;4.38;;;16.00;99.90;;;;;;5061985;28;20191;-77
2022/09/05 05:16:03;;;;;;;4.97;4.47;;;16.40;99.90;;;;;;5066865;28;20201;-75
2022/09/05 05:18:44;;;;;;;4.60;4.20;;;16.00;99.90;;;;;;5066016;28;20688;-76
2022/09/05 05:21:16;;;;;;;6.43;4.30;;;16.30;99.90;;;;;;5068181;28;20224;-77
2022/09/05 05:23:48;;;;;;;5.20;4.70;;;15.80;99.90;;;;;;5064952;28;20178;-77
2022/09/05 05:26:41;;;;;;;7.32;4.40;;;16.20;99.90;;;;;;5062190;28;20184;-77
2022/09/05 05:29:15;;;;;;;4.50;4.10;;;16.40;99.90;;;;;;5065197;28;20215;-77
2022/09/05 05:31:52;;;;;;;5.10;4.60;;;16.20;99.90;;;;;;5059136;28;20835;-78
2022/09/05 05:34:40;;;;;;;5.10;4.60;;;16.40;99.90;;;;;;5068587;28;20188;-77
2022/09/05 05:37:14;;;;;;;5.40;4.90;;;16.30;99.90;;;;;;5063857;28;20181;-77
2022/09/05 05:39:45;;;;;;;5.40;4.90;;;16.20;99.90;;;;;;5064208;28;20276;-77
2022/09/05 05:42:24;;;;;;;4.85;4.22;;;16.40;99.90;;;;;;5061336;28;20208;-77
2022/09/05 05:44:56;;;;;;;5.53;5.03;;;16.40;99.90;;;;;;5064673;28;20270;-78
2022/09/05 05:47:41;;;;;;;5.35;4.85;;;16.80;99.90;;;;;;5069345;28;20180;-75
2022/09/05 05:50:20;;;;;;;12.43;5.50;;;16.80;99.90;;;;;;5068477;28;20201;-77
2022/09/05 05:53:23;;;;;;;4.80;4.30;;;16.30;99.90;;;;;;5071601;28;20184;-78
2022/09/05 05:56:24;;;;;;;5.28;4.72;;;16.60;99.90;;;;;;5065365;28;20338;-77
2022/09/05 05:59:08;;;;;;;5.63;5.13;;;16.60;99.90;;;;;;5066870;28;20721;-77
2022/09/05 06:02:00;;;;;;;4.80;4.40;;;16.80;99.90;;;;;;5068022;28;20184;-75
2022/09/05 06:04:38;;;;;;;7.05;4.95;;;16.80;99.90;;;;;;5065122;28;20810;-77
2022/09/05 06:07:43;;;;;;;6.75;5.50;;;17.00;99.90;;;;;;5061163;28;20265;-78
2022/09/05 06:10:46;;;;;;;5.10;4.32;;;16.80;99.90;;;;;;5066540;28;20596;-77
2022/09/05 06:13:20;;;;;;;8.40;5.78;;;17.00;99.90;;;;;;5070371;28;20797;-77
2022/09/05 06:16:24;;;;;;;7.22;5.63;;;17.70;99.90;;;;;;5071114;28;20211;-77
2022/09/05 06:19:43;;;;;;;5.90;4.68;;;17.30;99.90;;;;;;5070709;28;20210;-78
2022/09/05 06:22:42;;;;;;;5.70;5.20;;;17.40;99.90;;;;;;5059550;28;20548;-78
2022/09/05 06:25:42;;;;;;;4.75;4.30;;;17.70;99.90;;;;;;5063862;28;20673;-75
2022/09/05 06:28:16;;;;;;;5.88;4.50;;;17.80;99.90;;;;;;5061164;28;20193;-77
2022/09/05 06:30:51;;;;;;;5.57;4.78;;;17.80;99.90;;;;;;5066158;28;20193;-78
2022/09/05 06:33:44;;;;;;;5.05;4.65;;;18.10;99.90;;;;;;5068908;28;20180;-76
2022/09/05 06:36:10;;;;;;;6.05;5.45;;;18.30;99.90;;;;;;5060761;28;20343;-75
2022/09/05 06:38:59;;;;;;;4.73;4.33;;;18.30;99.90;;;;;;5065339;28;20280;-76
2022/09/05 06:41:39;;;;;;;4.93;4.53;;;18.50;99.90;;;;;;5070923;28;20466;-75
2022/09/05 06:44:22;;;;;;;4.75;4.35;;;18.80;99.90;;;;;;5065424;28;20211;-76
2022/09/05 06:46:53;;;;;;;7.72;5.30;;;19.00;99.90;;;;;;5067998;28;20182;-77
2022/09/05 06:49:20;;;;;;;5.53;4.88;;;19.20;99.90;;;;;;5067139;28;20293;-77
2022/09/05 06:52:22;;;;;;;6.13;5.53;;;19.40;99.90;;;;;;5063787;28;20601;-76
2022/09/05 06:55:12;;;;;;;5.45;4.95;;;19.30;99.90;;;;;;5068093;28;20199;-77
2022/09/05 06:58:04;;;;;;;6.47;5.85;;;19.20;99.90;;;;;;5056952;28;20551;-77
2022/09/05 07:00:43;;;;;;;4.50;4.10;;;19.70;99.90;;;;;;5064544;28;20189;-78
2022/09/05 07:03:38;;;;;;;4.32;4.03;;;20.10;99.90;;;;;;5057143;28;20181;-77
2022/09/05 07:06:09;;;;;;;5.23;4.70;;;21.30;99.90;;;;;;5063690;28;20199;-77
2022/09/05 07:08:54;;;;;;;5.60;4.60;;;23.20;99.80;;;;;;5059478;28;20966;-77
2022/09/05 07:11:32;;;;;;;4.50;4.10;;;24.00;97.10;;;;;;5069083;28;20473;-78
2022/09/05 07:14:43;;;;;;;4.70;4.30;;;26.10;94.40;;;;;;5067652;28;20436;-78
2022/09/05 07:17:27;;;;;;;5.40;4.50;;;28.90;87.60;;;;;;5031465;28;20458;-78
2022/09/05 07:20:00;;;;;;;3.90;3.47;;;30.40;75.60;;;;;;5068359;28;20991;-78
2022/09/05 07:23:03;;;;;;;5.23;3.73;;;31.60;69.60;;;;;;5063729;28;20458;-78
2022/09/05 07:25:31;;;;;;;4.00;3.60;;;31.90;65.30;;;;;;5062881;28;20881;-79
2022/09/05 07:28:00;;;;;;;4.50;4.10;;;32.70;63.70;;;;;;5069034;28;20431;-80
2022/09/05 07:30:26;;;;;;;4.90;4.30;;;33.40;59.90;;;;;;5063648;28;20442;-80
2022/09/05 07:32:55;;;;;;;3.80;3.50;;;32.90;58.30;;;;;;5066558;28;20435;-82
2022/09/05 07:35:28;;;;;;;4.60;3.90;;;34.10;57.60;;;;;;5064224;28;20470;-79
2022/09/05 07:38:12;;;;;;;3.80;3.50;;;34.00;56.80;;;;;;5065817;28;20429;-80
2022/09/05 07:40:44;;;;;;;3.93;3.40;;;35.80;54.50;;;;;;5066179;28;20443;-81
2022/09/05 07:43:16;;;;;;;5.50;3.23;;;36.90;51.30;;;;;;5061821;28;20523;-78
2022/09/05 07:45:47;;;;;;;12.00;3.30;;;37.90;49.20;;;;;;5068503;28;20939;-79
2022/09/05 07:48:20;;;;;;;3.77;3.47;;;39.00;47.00;;;;;;5068570;28;20464;-80
2022/09/05 07:50:56;;;;;;;5.03;4.33;;;39.80;44.70;;;;;;5061838;28;20436;-80
2022/09/05 07:53:23;;;;;;;3.60;3.30;;;40.80;43.50;;;;;;5064462;28;20448;-79
2022/09/05 07:56:01;;;;;;;4.47;4.07;;;41.40;41.60;;;;;;5063384;28;20473;-80
2022/09/05 07:58:40;;;;;;;4.73;4.37;;;41.50;40.10;;;;;;5062112;28;20466;-79
2022/09/05 08:01:11;;;;;;;6.10;3.60;;;42.20;38.90;;;;;;5061596;28;20547;-79
2022/09/05 08:03:36;;;;;;;4.70;3.93;;;42.70;37.70;;;;;;5067321;28;20443;-79
2022/09/05 08:06:07;;;;;;;5.17;4.50;;;42.90;37.40;;;;;;5068214;28;20437;-79
2022/09/05 08:08:46;;;;;;;4.60;4.30;;;41.20;38.70;;;;;;5057527;28;20213;-78
2022/09/05 08:11:13;;;;;;;5.00;3.87;;;42.20;38.10;;;;;;5063766;28;20431;-78
2022/09/05 08:13:41;;;;;;;2.87;2.57;;;42.20;36.70;;;;;;5065391;28;20450;-78
2022/09/05 08:16:09;;;;;;;2.77;2.50;;;41.50;37.20;;;;;;5068069;28;20607;-79
2022/09/05 08:18:41;;;;;;;2.80;2.60;;;41.00;37.50;;;;;;5065936;28;20454;-79
2022/09/05 08:21:41;;;;;;;2.90;2.50;;;40.30;37.70;;;;;;5067906;28;20525;-79
2022/09/05 08:24:13;;;;;;;3.03;2.60;;;40.50;37.80;;;;;;5057730;28;21053;-79
2022/09/05 08:26:47;;;;;;;2.90;2.40;;;40.30;38.20;;;;;;5068438;28;20434;-80
2022/09/05 08:29:29;;;;;;;3.03;2.67;;;40.30;38.20;;;;;;5066630;28;20836;-78
2022/09/05 08:32:31;;;;;;;3.43;2.30;;;41.00;37.60;;;;;;5065116;28;20950;-80
2022/09/05 08:35:05;;;;;;;3.47;2.30;;;40.70;37.20;;;;;;5069105;28;20474;-79
2022/09/05 08:37:31;;;;;;;3.03;2.53;;;40.50;37.00;;;;;;5068451;28;20463;-78
2022/09/05 08:40:02;;;;;;;2.63;2.43;;;40.00;37.60;;;;;;5067618;28;20523;-80
2022/09/05 08:42:54;;;;;;;3.30;2.80;;;40.30;38.00;;;;;;5069110;28;20419;-80
2022/09/05 08:45:20;;;;;;;2.83;2.53;;;40.40;37.90;;;;;;5059183;28;20496;-80
2022/09/05 08:47:54;;;;;;;3.00;2.70;;;40.50;37.80;;;;;;5068340;28;20442;-80
2022/09/05 08:50:57;;;;;;;2.60;2.40;;;40.10;37.60;;;;;;5067111;28;20199;-80
2022/09/05 08:53:41;;;;;;;4.20;3.80;;;40.10;37.30;;;;;;5068402;28;20467;-78
2022/09/05 08:56:12;;;;;;;3.13;2.60;;;39.70;38.10;;;;;;5063167;28;20533;-80
2022/09/05 08:59:03;;;;;;;2.70;2.50;;;38.40;39.10;;;;;;5063610;28;20462;-78
2022/09/05 09:01:32;;;;;;;4.40;3.53;;;37.50;40.90;;;;;;5067868;28;20513;-78
2022/09/05 09:04:38;;;;;;;3.10;2.77;;;35.50;44.30;;;;;;5062406;28;20447;-80
2022/09/05 09:07:17;;;;;;;2.83;2.63;;;34.40;46.00;;;;;;4989119;28;20953;-78
2022/09/05 09:09:46;;;;;;;3.47;3.27;;;33.40;48.00;;;;;;5060000;28;20580;-79
2022/09/05 09:12:14;;;;;;;3.83;3.33;;;31.80;50.70;;;;;;5069235;28;20473;-79
2022/09/05 09:14:59;;;;;;;5.40;3.00;;;31.30;52.80;;;;;;5068539;28;20443;-80
2022/09/05 09:17:40;;;;;;;3.27;2.80;;;30.90;53.80;;;;;;5064300;28;20515;-79
2022/09/05 09:20:11;;;;;;;3.10;2.80;;;30.30;54.50;;;;;;5067923;28;20522;-79
2022/09/05 09:22:52;;;;;;;5.40;2.90;;;29.90;56.40;;;;;;5063636;28;20458;-78
2022/09/05 09:25:30;;;;;;;4.90;4.50;;;29.60;57.10;;;;;;5069460;28;20468;-78
2022/09/05 09:28:02;;;;;;;3.07;2.77;;;29.10;58.80;;;;;;5055720;28;21151;-79
2022/09/05 09:30:29;;;;;;;3.03;2.83;;;28.80;58.40;;;;;;5059314;28;20426;-78
2022/09/05 09:33:01;;;;;;;2.73;2.53;;;28.70;58.80;;;;;;5071453;28;20977;-79
2022/09/05 09:35:45;;;;;;;2.80;2.60;;;28.60;60.70;;;;;;5070707;28;20537;-78
2022/09/05 09:38:36;;;;;;;4.30;2.90;;;28.40;61.40;;;;;;5059336;28;20449;-79
2022/09/05 09:41:27;;;;;;;2.67;2.47;;;28.30;61.70;;;;;;5066335;28;20948;-79
2022/09/05 09:44:01;;;;;;;4.60;3.03;;;28.50;63.10;;;;;;5072350;28;20882;-79
2022/09/05 09:46:36;;;;;;;3.00;2.70;;;28.60;63.50;;;;;;5068319;28;20445;-78
2022/09/05 09:49:22;;;;;;;3.37;3.00;;;28.60;63.00;;;;;;5072048;28;20456;-79
2022/09/05 09:52:05;;;;;;;2.80;2.60;;;28.30;63.70;;;;;;5063259;28;20536;-79
2022/09/05 09:55:18;;;;;;;3.93;3.27;;;28.20;64.70;;;;;;5066084;28;20441;-78
2022/09/05 09:57:46;;;;;;;4.47;3.17;;;28.10;64.60;;;;;;5053230;23;20508;-56
2022/09/05 10:00:24;;;;;;;4.17;2.80;;;28.40;66.20;;;;;;5043212;28;20884;-57
2022/09/05 10:02:51;;;;;;;4.70;3.20;;;27.90;66.20;;;;;;5026149;28;20434;-57
2022/09/05 10:05:41;;;;;;;3.00;2.80;;;27.90;67.00;;;;;;5049385;28;20467;-58
2022/09/05 10:08:40;;;;;;;4.30;3.20;;;27.90;67.40;;;;;;5048777;28;20195;-58
2022/09/05 10:11:43;;;;;;;6.37;3.20;;;27.90;66.70;;;;;;5051596;28;20466;-58
2022/09/05 10:14:37;;;;;;;4.03;3.27;;;28.00;66.40;;;;;;5049653;28;20428;-58
2022/09/05 10:17:28;;;;;;;4.27;2.77;;;27.80;66.70;;;;;;5046269;28;20440;-58
2022/09/05 10:20:16;;;;;;;3.00;2.80;;;27.90;67.50;;;;;;5044884;28;20444;-58
2022/09/05 10:23:09;;;;;;;3.73;3.33;;;27.90;66.20;;;;;;5048138;28;20439;-57
2022/09/05 10:26:07;;;;;;;3.27;2.97;;;28.00;66.50;;;;;;5049814;28;20603;-58
2022/09/05 10:29:01;;;;;;;3.27;2.97;;;28.10;66.50;;;;;;5019906;28;20461;-58
2022/09/05 10:32:05;;;;;;;4.20;2.40;;;28.00;66.30;;;;;;5051238;28;20980;-58
2022/09/05 10:34:41;;;;;;;3.23;2.93;;;28.20;60.00;;;;;;5018544;28;20453;-58
2022/09/05 10:37:11;;;;;;;3.43;2.70;;;28.30;60.30;;;;;;5040470;28;20955;-58
2022/09/05 10:39:41;;;;;;;2.80;2.60;;;28.30;61.40;;;;;;5050150;28;20461;-58
2022/09/05 10:42:24;;;;;;;6.03;2.73;;;28.40;61.30;;;;;;5046644;28;20442;-58
2022/09/05 10:44:53;;;;;;;3.17;2.97;;;28.50;62.60;;;;;;5047890;28;20496;-58
2022/09/05 10:47:46;;;;;;;3.03;2.80;;;28.50;62.80;;;;;;5048139;28;20439;-58
2022/09/05 10:50:31;;;;;;;3.57;2.93;;;28.60;63.30;;;;;;5035123;28;20547;-58
2022/09/05 10:53:34;;;;;;;4.07;2.80;;;28.70;63.20;;;;;;5051110;28;20425;-58
2022/09/05 10:56:07;;;;;;;3.30;3.00;;;28.60;63.30;;;;;;5050624;28;20588;-57
2022/09/05 10:58:59;;;;;;;5.90;3.53;;;28.70;62.80;;;;;;5056424;28;20539;-59
2022/09/05 11:01:43;;;;;;;2.80;2.60;;;28.80;62.00;;;;;;5040889;28;20587;-58
2022/09/05 11:04:20;;;;;;;2.57;2.37;;;28.80;58.40;;;;;;5046814;28;20451;-57
2022/09/05 11:07:01;;;;;;;2.80;2.60;;;29.50;58.50;;;;;;5050336;28;20442;-58
2022/09/05 11:09:54;;;;;;;2.67;2.50;;;30.90;55.40;;;;;;5042181;28;20510;-58
2022/09/05 11:12:43;;;;;;;3.30;2.80;;;31.00;55.10;;;;;;5047931;28;21065;-58
2022/09/05 11:15:32;;;;;;;3.30;2.60;;;31.40;54.90;;;;;;5050245;28;20548;-58
2022/09/05 11:18:28;;;;;;;3.50;2.70;;;31.70;53.50;;;;;;5048933;28;20876;-58
2022/09/05 11:21:13;;;;;;;3.77;3.40;;;31.70;53.10;;;;;;5047128;28;20462;-58
2022/09/05 11:23:45;;;;;;;2.50;2.30;;;31.30;53.80;;;;;;5043892;28;20518;-59
2022/09/05 11:26:36;;;;;;;2.50;2.30;;;31.10;51.20;;;;;;5048955;28;20851;-58
2022/09/05 11:29:13;;;;;;;2.50;2.30;;;31.20;50.00;;;;;;5050385;28;20937;-59
2022/09/05 11:32:09;;;;;;;2.50;2.30;;;31.20;50.00;;;;;;5043013;28;20456;-58
2022/09/05 11:34:39;;;;;;;2.80;2.40;;;31.00;49.60;;;;;;5047651;28;20452;-59
2022/09/05 11:37:26;;;;;;;3.10;2.60;;;30.80;51.40;;;;;;5050272;28;20432;-58
2022/09/05 11:40:34;;;;;;;2.60;2.40;;;30.50;51.90;;;;;;5038132;28;20455;-59
2022/09/05 11:43:19;;;;;;;3.20;2.90;;;30.10;51.90;;;;;;5049785;28;20497;-58
2022/09/05 11:45:56;;;;;;;3.00;2.80;;;29.80;52.70;;;;;;5044940;28;20427;-57
2022/09/05 11:48:57;;;;;;;2.60;2.40;;;29.60;52.60;;;;;;5047099;28;20449;-58
2022/09/05 11:51:36;;;;;;;2.70;2.50;;;29.60;53.70;;;;;;5038929;28;20601;-58
2022/09/05 11:54:23;;;;;;;2.43;2.30;;;29.90;53.70;;;;;;5049105;28;20550;-57
2022/09/05 11:56:59;;;;;;;3.07;2.40;;;30.40;53.00;;;;;;5045666;28;20470;-58
2022/09/05 11:59:49;;;;;;;3.97;3.13;;;30.90;52.70;;;;;;5043354;28;20446;-59
2022/09/05 12:02:44;;;;;;;4.63;3.07;;;31.00;52.00;;;;;;5043214;28;20484;-59
2022/09/05 12:05:51;;;;;;;2.60;2.43;;;31.40;52.00;;;;;;5050182;28;20525;-59
2022/09/05 12:08:55;;;;;;;3.43;3.13;;;31.50;50.80;;;;;;5048194;28;20448;-59
2022/09/05 12:11:42;;;;;;;2.47;2.37;;;31.40;51.40;;;;;;4987121;28;20838;-59
2022/09/05 12:14:35;;;;;;;3.10;2.90;;;31.30;51.10;;;;;;4969891;28;20492;-58
2022/09/05 12:17:11;;;;;;;2.53;2.33;;;31.20;52.10;;;;;;5035306;28;20502;-59
2022/09/05 12:19:49;;;;;;;3.53;3.23;;;31.00;52.10;;;;;;5047220;28;20548;-59
2022/09/05 12:22:32;;;;;;;2.50;2.40;;;30.70;52.80;;;;;;5048758;28;20446;-59
2022/09/05 12:25:15;;;;;;;2.87;2.67;;;30.70;52.80;;;;;;5047689;28;20465;-58
2022/09/05 12:27:47;;;;;;;2.40;2.20;;;30.60;52.70;;;;;;5043251;28;20439;-58
2022/09/05 12:30:21;;;;;;;2.47;2.27;;;30.20;52.80;;;;;;5043223;28;20460;-59
2022/09/05 12:33:09;;;;;;;4.73;4.23;;;30.10;53.20;;;;;;5045202;28;20489;-58
2022/09/05 12:35:42;;;;;;;4.43;3.33;;;29.90;54.40;;;;;;5049290;28;20468;-58
2022/09/05 12:38:18;;;;;;;2.33;2.23;;;30.00;54.50;;;;;;5044181;28;20458;-59
2022/09/05 12:41:06;;;;;;;2.83;2.63;;;29.60;54.10;;;;;;5047315;28;20473;-58
2022/09/05 12:43:34;;;;;;;2.70;2.50;;;29.70;54.40;;;;;;5023690;28;20440;-59
2022/09/05 12:46:31;;;;;;;3.07;2.60;;;29.80;54.60;;;;;;5049103;28;20424;-58
2022/09/05 12:49:26;;;;;;;2.73;2.47;;;29.80;54.10;;;;;;5044942;28;20444;-58
2022/09/05 12:52:02;;;;;;;3.03;2.70;;;29.80;53.90;;;;;;5050693;28;20580;-59
2022/09/05 12:54:34;;;;;;;2.60;2.30;;;29.80;54.60;;;;;;5051703;28;20439;-59
2022/09/05 12:57:09;;;;;;;2.57;2.37;;;29.80;53.30;;;;;;5052703;28;20565;-58
2022/09/05 12:59:35;;;;;;;2.43;2.33;;;29.60;54.50;;;;;;5050923;28;20807;-58
2022/09/05 13:02:06;;;;;;;3.70;2.50;;;29.50;54.50;;;;;;5052799;28;20439;-59
2022/09/05 13:04:47;;;;;;;4.03;3.60;;;29.40;54.40;;;;;;5053478;28;20449;-59
2022/09/05 13:07:19;;;;;;;2.73;2.40;;;29.40;55.10;;;;;;5033008;28;20515;-59
2022/09/05 13:09:55;;;;;;;2.70;2.50;;;29.40;54.00;;;;;;5044144;28;20467;-58
2022/09/05 13:12:54;;;;;;;2.70;2.50;;;29.30;54.50;;;;;;5052974;28;20434;-58
2022/09/05 13:15:36;;;;;;;3.00;2.80;;;29.30;54.10;;;;;;5041668;28;20475;-58
2022/09/05 13:18:12;;;;;;;2.70;2.50;;;29.30;52.60;;;;;;5038361;28;20497;-58
2022/09/05 13:20:47;;;;;;;2.93;2.57;;;29.40;51.60;;;;;;5041403;28;20545;-58
2022/09/05 13:23:27;;;;;;;2.80;2.60;;;29.50;51.90;;;;;;5035026;28;20427;-58
2022/09/05 13:26:10;;;;;;;6.43;2.50;;;29.50;52.70;;;;;;5052083;28;20431;-59
2022/09/05 13:28:52;;;;;;;2.30;2.20;;;29.60;53.60;;;;;;5052513;28;20462;-59
2022/09/05 13:31:58;;;;;;;2.40;2.30;;;29.60;52.60;;;;;;5043639;28;20920;-58
2022/09/05 13:34:33;;;;;;;2.97;2.77;;;29.60;53.50;;;;;;4992973;28;20458;-59
2022/09/05 13:37:06;;;;;;;3.93;2.67;;;29.70;53.60;;;;;;5045279;28;21026;-58
2022/09/05 13:39:49;;;;;;;4.40;4.00;;;29.70;52.60;;;;;;5038790;28;20884;-57
2022/09/05 13:42:18;;;;;;;5.43;5.03;;;29.80;52.10;;;;;;5038465;28;20813;-58
2022/09/05 13:44:48;;;;;;;10.50;9.57;;;29.80;52.20;;;;;;5052221;28;20443;-58
2022/09/05 13:47:41;;;;;;;3.13;2.83;;;29.80;51.70;;;;;;5035418;28;20813;-59
2022/09/05 13:50:35;;;;;;;3.70;2.50;;;29.80;50.50;;;;;;5045940;28;20482;-59
2022/09/05 13:53:05;;;;;;;5.90;3.73;;;29.80;50.20;;;;;;5050915;28;20450;-58
2022/09/05 13:55:52;;;;;;;3.27;3.07;;;29.80;50.50;;;;;;5044733;28;20463;-58
2022/09/05 13:58:44;;;;;;;2.87;2.67;;;29.80;51.40;;;;;;5048016;28;20848;-57
2022/09/05 14:01:55;;;;;;;3.30;2.97;;;29.80;50.60;;;;;;5031657;28;20467;-58
2022/09/05 14:04:41;;;;;;;2.57;2.20;;;29.80;51.20;;;;;;4989149;28;20452;-58
2022/09/05 14:07:46;;;;;;;3.30;2.50;;;29.90;50.00;;;;;;5044416;28;20470;-58